Time;durP1;ratioP1;P1;durP2;ratioP2;P2;SDS_P1;SDS_P2;PMS_P1;PMS_P2;Temp;Humidity;BMP_temperature;BMP_pressure;BME280_temperature;BME280_humidity;BME280_pressure;Samples;Min_cycle;Max_cycle;Signal;HPM_P1;HPM_P2
2022/01/14 00:01:35;;;;;;;9.13;4.32;;;5.60;99.90;;;;;;4953422;29;20038;-83
2022/01/14 00:04:00;;;;;;;9.07;4.57;;;5.60;99.90;;;;;;4955290;29;20046;-83
2022/01/14 00:06:26;;;;;;;9.23;4.00;;;5.50;99.90;;;;;;4950255;29;20096;-83
2022/01/14 00:09:00;;;;;;;10.23;4.55;;;5.50;99.90;;;;;;4961096;29;20032;-82
2022/01/14 00:11:29;;;;;;;9.18;3.90;;;5.60;99.90;;;;;;4946781;29;20091;-85
2022/01/14 00:14:08;;;;;;;10.45;4.35;;;5.60;99.90;;;;;;4946783;29;20034;-86
2022/01/14 00:16:34;;;;;;;10.18;4.57;;;5.50;99.90;;;;;;4946858;29;20083;-84
2022/01/14 00:19:00;;;;;;;10.82;4.80;;;5.50;99.90;;;;;;4947367;29;20031;-83
2022/01/14 00:21:27;;;;;;;8.73;4.25;;;5.60;99.90;;;;;;4948700;29;20032;-84
2022/01/14 00:24:05;;;;;;;10.35;4.95;;;5.60;99.90;;;;;;4952819;29;20068;-84
2022/01/14 00:32:14;;;;;;;12.30;4.75;;;5.60;99.90;;;;;;4956798;29;20043;-84
2022/01/14 00:34:40;;;;;;;11.95;4.43;;;5.60;99.90;;;;;;4976013;29;20028;-84
2022/01/14 00:37:06;;;;;;;12.98;4.50;;;5.60;99.90;;;;;;4958516;29;20074;-85
2022/01/14 00:39:31;;;;;;;10.23;4.53;;;5.70;99.90;;;;;;4957748;29;20031;-82
2022/01/14 00:41:58;;;;;;;11.68;4.85;;;5.70;99.90;;;;;;4959125;29;20036;-83
2022/01/14 00:44:24;;;;;;;16.23;5.68;;;5.60;99.90;;;;;;4960205;29;20092;-81
2022/01/14 00:46:50;;;;;;;14.15;5.70;;;5.70;99.90;;;;;;4959249;29;20036;-83
2022/01/14 00:49:18;;;;;;;10.73;4.40;;;5.60;99.90;;;;;;4958198;29;20056;-82
2022/01/14 00:51:45;;;;;;;13.85;4.95;;;5.70;99.90;;;;;;4958435;29;20059;-83
2022/01/14 00:54:11;;;;;;;11.65;5.05;;;5.60;99.90;;;;;;4956202;29;20039;-83
2022/01/14 00:59:16;;;;;;;14.40;5.03;;;5.70;99.90;;;;;;4953967;29;20091;-84
2022/01/14 01:01:48;;;;;;;10.73;5.05;;;5.70;99.90;;;;;;4956660;29;20512;-85
2022/01/14 01:04:16;;;;;;;12.10;5.22;;;5.70;99.90;;;;;;4954331;29;20044;-83
2022/01/14 01:06:42;;;;;;;12.40;6.10;;;5.80;99.90;;;;;;4951719;29;20038;-81
2022/01/14 01:09:11;;;;;;;10.63;4.53;;;5.80;99.90;;;;;;4957396;29;20040;-82
2022/01/14 01:11:51;;;;;;;10.25;4.65;;;5.80;99.90;;;;;;4958052;29;20043;-82
2022/01/14 01:14:25;;;;;;;11.25;4.57;;;5.80;99.90;;;;;;4958803;29;20044;-83
2022/01/14 01:16:51;;;;;;;9.05;4.63;;;5.80;99.90;;;;;;4958451;29;20043;-82
2022/01/14 01:19:17;;;;;;;12.95;5.50;;;5.80;99.90;;;;;;4958108;29;20056;-84
2022/01/14 01:21:42;;;;;;;10.40;4.63;;;5.80;99.90;;;;;;4973226;28;20036;-84
2022/01/14 01:24:10;;;;;;;11.88;4.40;;;5.80;99.90;;;;;;4960448;29;20072;-82
2022/01/14 01:26:39;;;;;;;12.10;4.70;;;5.80;99.90;;;;;;4958622;29;20040;-83
2022/01/14 01:31:38;;;;;;;10.38;4.47;;;5.80;99.90;;;;;;4938760;29;20060;-83
2022/01/14 01:34:16;;;;;;;8.80;3.88;;;5.90;99.90;;;;;;4941441;29;20105;-82
2022/01/14 01:36:44;;;;;;;8.70;3.85;;;5.90;99.90;;;;;;4941790;29;20028;-82
2022/01/14 01:39:16;;;;;;;9.23;4.07;;;5.90;99.90;;;;;;4955395;29;20012;-83
2022/01/14 01:41:53;;;;;;;9.20;4.22;;;5.90;99.90;;;;;;4949413;29;20040;-83
2022/01/14 01:44:21;;;;;;;10.65;3.97;;;5.90;99.90;;;;;;4952381;29;20031;-84
2022/01/14 01:46:48;;;;;;;9.15;4.20;;;5.90;99.90;;;;;;4958629;29;20016;-84
2022/01/14 01:49:18;;;;;;;7.70;3.30;;;5.90;99.90;;;;;;4959433;29;20035;-83
2022/01/14 01:51:45;;;;;;;9.98;4.10;;;5.90;99.90;;;;;;4960315;29;20008;-84
2022/01/14 01:54:11;;;;;;;8.45;3.75;;;5.90;99.90;;;;;;4959224;29;20024;-82
2022/01/14 01:56:37;;;;;;;13.30;4.10;;;5.90;99.90;;;;;;4959927;29;20019;-82
2022/01/14 01:59:05;;;;;;;9.60;4.57;;;5.90;99.90;;;;;;4960590;29;20057;-83
2022/01/14 02:01:31;;;;;;;9.52;4.10;;;5.90;99.90;;;;;;4960026;29;20043;-83
2022/01/14 02:03:57;;;;;;;10.68;4.38;;;5.90;99.90;;;;;;4975796;29;20068;-84
2022/01/14 02:06:24;;;;;;;9.98;3.95;;;5.90;99.90;;;;;;4957817;29;20035;-84
2022/01/14 02:08:51;;;;;;;8.32;4.50;;;5.90;99.90;;;;;;4958680;29;20027;-84
2022/01/14 02:11:17;;;;;;;7.70;3.83;;;5.90;99.90;;;;;;4959513;29;20023;-82
2022/01/14 02:13:44;;;;;;;8.80;3.60;;;5.90;99.90;;;;;;4955984;29;20028;-84
2022/01/14 02:16:19;;;;;;;9.40;4.40;;;5.90;99.90;;;;;;4950950;29;20520;-84
2022/01/14 02:24:21;;;;;;;11.68;4.47;;;5.90;99.60;;;;;;4957163;29;20108;-82
2022/01/14 02:26:53;;;;;;;10.65;4.18;;;5.90;99.60;;;;;;4954731;29;20500;-84
2022/01/14 02:29:21;;;;;;;12.23;4.28;;;5.90;99.50;;;;;;4956693;29;20040;-81
2022/01/14 02:31:48;;;;;;;8.23;3.67;;;5.80;99.60;;;;;;4958858;29;20023;-82
2022/01/14 02:34:16;;;;;;;11.55;4.45;;;5.90;99.60;;;;;;4959295;28;20063;-82
2022/01/14 02:36:44;;;;;;;10.40;3.97;;;5.90;99.60;;;;;;4959208;29;20023;-83
2022/01/14 02:39:11;;;;;;;8.63;3.92;;;5.90;99.60;;;;;;4958990;29;20023;-83
2022/01/14 02:41:40;;;;;;;12.07;3.70;;;5.90;99.50;;;;;;4958413;29;20023;-83
2022/01/14 02:44:08;;;;;;;9.23;3.80;;;5.90;99.40;;;;;;4959374;29;20042;-82
2022/01/14 02:46:40;;;;;;;9.77;3.85;;;5.90;99.30;;;;;;4959068;29;20051;-83
2022/01/14 02:49:06;;;;;;;11.20;3.85;;;5.90;99.30;;;;;;4960001;29;20043;-81
2022/01/14 02:51:32;;;;;;;7.65;3.35;;;5.90;99.20;;;;;;4960382;29;20038;-81
2022/01/14 02:54:33;;;;;;;7.53;3.50;;;5.90;99.20;;;;;;4960811;29;20039;-83
2022/01/14 02:56:55;;;;;;;13.55;3.72;;;5.90;99.30;;;;;;4941681;29;20059;-83
2022/01/14 02:59:21;;;;;;;8.80;3.97;;;5.80;99.30;;;;;;4957800;29;20100;-85
2022/01/14 03:01:49;;;;;;;10.70;4.22;;;5.80;99.30;;;;;;4956320;29;20035;-83
2022/01/14 03:04:18;;;;;;;8.38;3.08;;;5.80;99.60;;;;;;4959018;29;20504;-83
2022/01/14 03:06:44;;;;;;;15.05;3.42;;;5.80;99.50;;;;;;4960670;29;20055;-82
2022/01/14 03:09:10;;;;;;;9.45;4.07;;;5.80;99.40;;;;;;4959811;29;20043;-82
2022/01/14 03:11:48;;;;;;;6.63;3.30;;;5.70;99.40;;;;;;4960198;29;20092;-81
2022/01/14 03:14:23;;;;;;;7.18;3.25;;;5.70;99.60;;;;;;4959325;29;20019;-82
2022/01/14 03:16:54;;;;;;;8.40;3.33;;;5.70;99.60;;;;;;4972972;28;20127;-84
2022/01/14 03:19:25;;;;;;;10.10;3.55;;;5.70;99.60;;;;;;4960326;29;20030;-81
2022/01/14 03:22:06;;;;;;;7.57;3.05;;;5.70;99.60;;;;;;4959742;29;20067;-82
2022/01/14 03:27:01;;;;;;;8.50;3.65;;;5.70;99.30;;;;;;4959745;29;20036;-81
2022/01/14 03:29:27;;;;;;;15.60;4.18;;;5.70;99.10;;;;;;4959823;29;20035;-85
2022/01/14 03:31:53;;;;;;;12.00;3.72;;;5.70;99.10;;;;;;4959442;29;20043;-83
2022/01/14 03:34:19;;;;;;;9.00;3.97;;;5.70;99.10;;;;;;4956956;29;20031;-84
2022/01/14 03:36:45;;;;;;;8.70;3.83;;;5.70;99.00;;;;;;4959382;29;20554;-81
2022/01/14 03:39:11;;;;;;;9.85;4.32;;;5.60;99.00;;;;;;4955160;29;20031;-82
2022/01/14 03:41:36;;;;;;;10.88;4.25;;;5.60;99.10;;;;;;4955911;29;20038;-85
2022/01/14 03:44:03;;;;;;;12.55;4.25;;;5.60;99.40;;;;;;4958029;29;20052;-83
2022/01/14 03:46:29;;;;;;;7.55;3.45;;;5.60;99.60;;;;;;4956078;29;20011;-83
2022/01/14 03:48:55;;;;;;;7.97;3.83;;;5.60;99.60;;;;;;4958559;29;20035;-83
2022/01/14 03:51:23;;;;;;;11.15;4.18;;;5.60;99.40;;;;;;4960810;29;20050;-84
2022/01/14 03:53:49;;;;;;;9.77;4.15;;;5.60;99.40;;;;;;4960220;29;20030;-82
2022/01/14 03:56:16;;;;;;;10.13;4.57;;;5.60;99.40;;;;;;4961279;29;20044;-81
2022/01/14 03:58:42;;;;;;;9.85;3.70;;;5.60;99.50;;;;;;4960793;29;20060;-83
2022/01/14 04:01:12;;;;;;;12.32;3.72;;;5.60;99.40;;;;;;4954366;29;20028;-83
2022/01/14 04:03:39;;;;;;;10.10;4.43;;;5.60;99.20;;;;;;4955778;29;20027;-83
2022/01/14 04:06:06;;;;;;;8.73;3.90;;;5.60;99.30;;;;;;4958380;29;20026;-81
2022/01/14 04:08:33;;;;;;;11.50;4.53;;;5.60;99.40;;;;;;4953756;29;20027;-84
2022/01/14 04:11:01;;;;;;;11.75;4.68;;;5.60;99.50;;;;;;4956490;29;20023;-83
2022/01/14 04:13:46;;;;;;;10.90;3.85;;;5.60;99.70;;;;;;4953389;29;20028;-84
2022/01/14 04:16:13;;;;;;;8.18;3.72;;;5.50;99.90;;;;;;4953804;29;20038;-83
2022/01/14 04:18:39;;;;;;;11.27;4.70;;;5.50;99.90;;;;;;4957074;29;20031;-82
2022/01/14 04:21:05;;;;;;;9.18;4.35;;;5.40;99.90;;;;;;4960534;29;20024;-82
2022/01/14 04:23:31;;;;;;;11.35;4.55;;;5.40;99.90;;;;;;4959460;29;20018;-83
2022/01/14 04:25:58;;;;;;;11.23;4.70;;;5.40;99.90;;;;;;4950645;29;20028;-83
2022/01/14 04:28:26;;;;;;;11.32;4.53;;;5.40;99.90;;;;;;4958989;29;20096;-82
2022/01/14 04:30:55;;;;;;;14.40;4.43;;;5.30;99.90;;;;;;4959502;29;20023;-82
2022/01/14 04:33:22;;;;;;;11.23;4.68;;;5.30;99.90;;;;;;4947474;29;20027;-84
2022/01/14 04:35:48;;;;;;;12.70;4.68;;;5.30;99.90;;;;;;4944137;29;20046;-82
2022/01/14 04:38:13;;;;;;;14.25;5.03;;;5.20;99.90;;;;;;4943671;29;20035;-84
2022/01/14 04:40:40;;;;;;;11.55;4.30;;;5.30;99.90;;;;;;4947115;29;20091;-84
2022/01/14 04:43:07;;;;;;;9.85;4.30;;;5.30;99.90;;;;;;4949531;29;20035;-83
2022/01/14 04:48:03;;;;;;;10.57;4.80;;;5.30;99.90;;;;;;4951905;29;20024;-83
2022/01/14 04:50:30;;;;;;;14.68;4.30;;;5.40;99.90;;;;;;4952458;29;20063;-83
2022/01/14 04:52:55;;;;;;;9.75;4.43;;;5.30;99.90;;;;;;4936443;29;20038;-84
2022/01/14 04:55:23;;;;;;;14.25;4.82;;;5.40;99.90;;;;;;4952457;29;20455;-84
2022/01/14 04:57:51;;;;;;;12.27;4.80;;;5.40;99.90;;;;;;4953826;23;20140;-88
2022/01/14 05:00:22;;;;;;;11.13;4.93;;;5.30;99.90;;;;;;4922477;29;20021;-88
2022/01/14 05:02:48;;;;;;;9.25;4.20;;;5.30;99.90;;;;;;4937455;29;20025;-86
2022/01/14 05:05:17;;;;;;;12.30;4.25;;;5.30;99.90;;;;;;4922916;29;20516;-87
2022/01/14 05:07:46;;;;;;;12.15;4.85;;;5.40;99.90;;;;;;4921008;29;20073;-87
2022/01/14 05:10:25;;;;;;;9.73;4.47;;;5.40;99.90;;;;;;4921315;29;20025;-88
2022/01/14 05:12:51;;;;;;;13.02;3.95;;;5.40;99.90;;;;;;4922023;29;20017;-88
2022/01/14 05:15:18;;;;;;;12.63;5.18;;;5.40;99.90;;;;;;4904806;29;20028;-86
2022/01/14 05:17:46;;;;;;;13.73;4.22;;;5.50;99.90;;;;;;4921873;29;20025;-89
2022/01/14 05:20:13;;;;;;;10.50;4.60;;;5.50;99.90;;;;;;4922919;29;20017;-87
2022/01/14 05:22:40;;;;;;;9.13;4.25;;;5.50;99.90;;;;;;4920855;29;20080;-87
2022/01/14 05:25:07;;;;;;;8.48;4.20;;;5.60;99.90;;;;;;4921194;29;20017;-89
2022/01/14 05:27:33;;;;;;;12.63;4.43;;;5.60;99.90;;;;;;4916627;29;20500;-87
2022/01/14 05:29:59;;;;;;;9.50;3.90;;;5.60;99.90;;;;;;4912328;29;20029;-89
2022/01/14 05:32:26;;;;;;;8.10;3.75;;;5.70;99.90;;;;;;4910198;29;20665;-88
2022/01/14 05:34:52;;;;;;;10.50;3.83;;;5.60;99.90;;;;;;4911500;29;20029;-89
2022/01/14 05:37:18;;;;;;;10.25;4.18;;;5.60;99.90;;;;;;4911860;29;20040;-88
2022/01/14 05:39:44;;;;;;;11.02;3.85;;;5.60;99.90;;;;;;4921509;29;20070;-88
2022/01/14 05:42:10;;;;;;;12.35;4.63;;;5.70;99.90;;;;;;4921666;29;20058;-87
2022/01/14 05:44:36;;;;;;;12.48;4.30;;;5.70;99.90;;;;;;4921844;29;20051;-89
2022/01/14 05:47:03;;;;;;;10.05;4.18;;;5.70;99.90;;;;;;4920773;29;20044;-88
2022/01/14 05:49:29;;;;;;;16.40;4.60;;;5.70;99.90;;;;;;4921701;29;20021;-88
2022/01/14 05:51:55;;;;;;;10.23;4.82;;;5.70;99.90;;;;;;4917391;29;20028;-87
2022/01/14 05:54:22;;;;;;;8.73;3.65;;;5.80;99.90;;;;;;4899746;29;20092;-87
2022/01/14 05:56:49;;;;;;;8.80;3.75;;;5.80;99.90;;;;;;4919971;29;20036;-89
2022/01/14 05:59:15;;;;;;;9.90;3.70;;;5.80;99.90;;;;;;4920692;29;20069;-88
2022/01/14 06:01:43;;;;;;;11.25;4.05;;;5.80;99.90;;;;;;4917430;29;20043;-88
2022/01/14 06:04:09;;;;;;;10.23;4.70;;;5.80;99.90;;;;;;4922156;29;20013;-89
2022/01/14 06:06:36;;;;;;;10.85;4.15;;;5.80;99.90;;;;;;4924382;29;20055;-88
2022/01/14 06:09:03;;;;;;;10.20;4.72;;;5.80;99.90;;;;;;4923213;29;20108;-91
2022/01/14 06:11:30;;;;;;;12.23;3.92;;;5.80;99.90;;;;;;4924258;29;20024;-88
2022/01/14 06:13:56;;;;;;;9.20;3.58;;;5.90;99.90;;;;;;4924544;29;20040;-89
2022/01/14 06:16:22;;;;;;;8.93;3.78;;;5.90;99.90;;;;;;4924420;29;20040;-88
2022/01/14 06:18:49;;;;;;;10.32;4.15;;;5.90;99.90;;;;;;4917436;29;20108;-88
2022/01/14 06:21:15;;;;;;;9.48;3.90;;;5.90;99.90;;;;;;4914571;29;20048;-88
2022/01/14 06:23:41;;;;;;;11.00;4.20;;;5.90;99.90;;;;;;4935402;29;20033;-87
2022/01/14 06:26:08;;;;;;;10.10;3.88;;;5.80;99.90;;;;;;4917969;29;20416;-87
2022/01/14 06:28:34;;;;;;;7.90;3.67;;;5.90;99.90;;;;;;4917992;29;20059;-88
2022/01/14 06:30:59;;;;;;;8.77;3.55;;;5.90;99.90;;;;;;4919261;29;20025;-87
2022/01/14 06:33:25;;;;;;;8.20;3.90;;;5.90;99.90;;;;;;4919775;29;20031;-87
2022/01/14 06:35:51;;;;;;;7.18;3.28;;;5.80;99.90;;;;;;4920473;29;20056;-88
2022/01/14 06:38:19;;;;;;;9.52;2.95;;;5.80;99.90;;;;;;4918999;29;20033;-88
2022/01/14 06:40:48;;;;;;;11.63;3.95;;;5.80;99.90;;;;;;4933844;29;20123;-89
2022/01/14 06:43:15;;;;;;;9.82;3.80;;;5.80;99.90;;;;;;4916788;29;20036;-90
2022/01/14 06:45:46;;;;;;;9.95;3.78;;;5.70;99.90;;;;;;4932906;29;20032;-88
2022/01/14 06:48:14;;;;;;;15.77;3.95;;;5.70;99.90;;;;;;4917346;29;20048;-86
2022/01/14 06:50:40;;;;;;;15.65;5.07;;;5.70;99.90;;;;;;4918453;29;20101;-88
2022/01/14 06:53:06;;;;;;;10.00;4.10;;;5.70;99.90;;;;;;4917457;29;20088;-86
2022/01/14 06:55:32;;;;;;;8.18;3.53;;;5.60;99.90;;;;;;4916968;29;20025;-87
2022/01/14 06:57:58;;;;;;;8.10;3.38;;;5.60;99.90;;;;;;4907577;29;20060;-85
2022/01/14 07:00:25;;;;;;;10.85;4.85;;;5.60;99.90;;;;;;4907589;29;20031;-87
2022/01/14 07:02:52;;;;;;;9.77;4.25;;;5.60;99.90;;;;;;4921595;29;20040;-86
2022/01/14 07:05:18;;;;;;;8.68;3.80;;;5.60;99.90;;;;;;4907089;29;20059;-86
2022/01/14 07:07:44;;;;;;;19.55;6.88;;;5.70;99.90;;;;;;4909487;29;20033;-86
2022/01/14 07:10:10;;;;;;;9.77;3.60;;;5.80;99.90;;;;;;4910108;29;20035;-86
2022/01/14 07:12:41;;;;;;;9.05;3.83;;;5.80;99.90;;;;;;4935488;29;20052;-86
2022/01/14 07:15:10;;;;;;;8.82;3.97;;;6.00;99.90;;;;;;4921344;29;20049;-86
2022/01/14 07:17:37;;;;;;;8.27;3.78;;;6.10;99.90;;;;;;4917477;29;20040;-85
2022/01/14 07:20:07;;;;;;;6.18;3.35;;;6.10;99.90;;;;;;4899330;29;20057;-84
2022/01/14 07:22:33;;;;;;;8.60;3.90;;;6.10;99.90;;;;;;4908807;29;20092;-85
2022/01/14 07:24:59;;;;;;;7.93;4.00;;;6.10;99.90;;;;;;4915220;29;20032;-84
2022/01/14 07:27:26;;;;;;;10.02;3.75;;;6.10;99.90;;;;;;4915398;29;20069;-85
2022/01/14 07:29:52;;;;;;;6.22;3.60;;;6.10;99.90;;;;;;4909601;29;20020;-85
2022/01/14 07:32:18;;;;;;;12.27;3.75;;;6.10;99.90;;;;;;4910265;29;20036;-86
2022/01/14 07:34:45;;;;;;;9.90;3.92;;;6.20;99.90;;;;;;4909757;29;20484;-84
2022/01/14 07:37:12;;;;;;;15.30;3.80;;;6.20;99.90;;;;;;4905077;29;20687;-83
2022/01/14 07:39:38;;;;;;;15.00;3.88;;;6.30;99.90;;;;;;4909355;29;20096;-83
2022/01/14 07:42:04;;;;;;;11.65;3.80;;;6.40;99.90;;;;;;4912277;29;20413;-84
2022/01/14 07:44:30;;;;;;;14.82;4.00;;;6.40;99.90;;;;;;4915614;29;20119;-85
2022/01/14 07:46:57;;;;;;;9.43;4.57;;;6.50;99.90;;;;;;4917272;29;20035;-84
2022/01/14 07:49:23;;;;;;;11.48;4.38;;;6.50;99.90;;;;;;4925568;29;20031;-84
2022/01/14 07:51:50;;;;;;;10.40;3.90;;;6.50;99.90;;;;;;4917566;29;20024;-83
2022/01/14 07:54:15;;;;;;;10.50;4.05;;;6.60;99.90;;;;;;4929294;29;20027;-84
2022/01/14 07:56:47;;;;;;;13.98;4.20;;;6.60;99.90;;;;;;4921054;29;20101;-85
2022/01/14 07:59:16;;;;;;;10.70;3.95;;;6.60;99.90;;;;;;4923300;29;20064;-82
2022/01/14 08:01:44;;;;;;;9.55;4.15;;;6.70;99.90;;;;;;4914650;29;20037;-85
2022/01/14 08:04:10;;;;;;;10.00;4.25;;;6.70;99.90;;;;;;4920666;29;20032;-83
2022/01/14 08:06:44;;;;;;;8.40;4.15;;;6.70;99.90;;;;;;4925932;29;20028;-83
2022/01/14 08:09:10;;;;;;;12.70;4.50;;;6.70;99.90;;;;;;4921415;29;20032;-83
2022/01/14 08:11:35;;;;;;;8.88;3.92;;;6.70;99.90;;;;;;4922549;29;20072;-83
2022/01/14 08:14:02;;;;;;;8.10;3.50;;;6.70;99.90;;;;;;4925202;29;20028;-85
2022/01/14 08:16:28;;;;;;;22.23;4.10;;;6.80;99.90;;;;;;4911424;29;20035;-86
2022/01/14 08:18:54;;;;;;;10.60;4.53;;;6.80;99.90;;;;;;4919062;29;20084;-86
2022/01/14 08:21:20;;;;;;;10.70;4.13;;;6.80;99.90;;;;;;4919430;29;20048;-85
2022/01/14 08:23:47;;;;;;;7.82;3.53;;;6.90;99.90;;;;;;4919333;29;20029;-86
2022/01/14 08:26:13;;;;;;;7.80;3.63;;;7.00;99.90;;;;;;4923968;29;20039;-85
2022/01/14 08:28:39;;;;;;;12.38;3.40;;;7.10;99.90;;;;;;4931161;29;20072;-86
2022/01/14 08:31:05;;;;;;;10.15;3.97;;;7.20;99.90;;;;;;4919082;29;20426;-84
2022/01/14 08:33:31;;;;;;;7.45;3.90;;;7.40;99.90;;;;;;4929297;29;20030;-86
2022/01/14 08:35:57;;;;;;;9.00;3.40;;;7.70;99.90;;;;;;4924175;29;20028;-85
2022/01/14 08:38:24;;;;;;;9.30;3.25;;;8.00;99.60;;;;;;4935896;29;20097;-86
2022/01/14 08:40:50;;;;;;;8.30;3.55;;;8.20;99.20;;;;;;4915060;29;20032;-85
2022/01/14 08:43:17;;;;;;;8.05;3.53;;;8.30;98.70;;;;;;4924374;29;20028;-85
2022/01/14 08:45:44;;;;;;;9.20;4.38;;;9.00;98.10;;;;;;4918314;29;20056;-87
2022/01/14 08:48:10;;;;;;;7.30;3.55;;;9.40;97.00;;;;;;4938587;29;20045;-86
2022/01/14 08:50:38;;;;;;;12.40;4.03;;;10.00;96.00;;;;;;4919474;29;20044;-86
2022/01/14 08:53:07;;;;;;;11.15;4.95;;;10.30;95.20;;;;;;4912802;29;20100;-86
2022/01/14 08:55:35;;;;;;;16.08;3.85;;;11.00;94.10;;;;;;4918369;29;20020;-87
2022/01/14 08:58:03;;;;;;;10.57;3.88;;;11.60;92.70;;;;;;4916110;29;20041;-86
2022/01/14 09:00:29;;;;;;;15.27;4.18;;;11.80;92.00;;;;;;4909661;29;20037;-85
2022/01/14 09:02:55;;;;;;;7.88;3.88;;;12.10;91.10;;;;;;4926781;29;20043;-86
2022/01/14 09:05:22;;;;;;;8.15;3.97;;;12.70;90.10;;;;;;4933238;29;20051;-86
2022/01/14 09:07:49;;;;;;;9.90;4.07;;;12.70;89.40;;;;;;4925859;29;20028;-84
2022/01/14 09:10:16;;;;;;;9.02;3.78;;;13.10;88.00;;;;;;4919780;29;20016;-85
2022/01/14 09:12:42;;;;;;;6.60;3.67;;;13.40;86.30;;;;;;4940341;29;20036;-86
2022/01/14 09:15:09;;;;;;;10.05;4.32;;;13.50;85.70;;;;;;4938963;29;20084;-84
2022/01/14 09:17:36;;;;;;;8.50;3.70;;;14.10;83.80;;;;;;4940282;29;20036;-84
2022/01/14 09:20:04;;;;;;;8.30;4.00;;;14.50;82.70;;;;;;4923848;29;20108;-86
2022/01/14 09:22:31;;;;;;;9.38;4.18;;;15.00;80.70;;;;;;4928830;29;20025;-84
2022/01/14 09:24:59;;;;;;;11.15;4.75;;;15.40;79.80;;;;;;4921124;29;20033;-86
2022/01/14 09:27:29;;;;;;;9.27;4.88;;;15.80;78.50;;;;;;4917084;29;20051;-87
2022/01/14 09:29:56;;;;;;;8.52;4.50;;;15.80;77.80;;;;;;4923774;29;20087;-85
2022/01/14 09:32:22;;;;;;;9.43;4.60;;;16.40;76.80;;;;;;4922037;29;20034;-86
2022/01/14 09:34:48;;;;;;;8.85;4.47;;;17.20;74.80;;;;;;4920867;29;20036;-86
2022/01/14 09:37:14;;;;;;;9.35;4.47;;;17.80;72.40;;;;;;4919524;29;20084;-87
2022/01/14 09:39:43;;;;;;;11.35;4.65;;;17.80;71.60;;;;;;4930550;29;20032;-86
2022/01/14 09:42:15;;;;;;;9.13;4.47;;;18.20;70.30;;;;;;4919352;29;20032;-85
2022/01/14 09:44:43;;;;;;;10.15;4.60;;;18.00;69.90;;;;;;4924698;29;20034;-86
2022/01/14 09:47:15;;;;;;;8.15;4.40;;;18.30;68.70;;;;;;4928767;29;20088;-86
2022/01/14 09:49:40;;;;;;;10.13;5.00;;;19.40;66.20;;;;;;4933366;29;20045;-87
2022/01/14 09:52:06;;;;;;;10.68;5.68;;;18.60;65.80;;;;;;4922244;29;20496;-87
2022/01/14 09:54:32;;;;;;;14.43;5.40;;;18.60;65.40;;;;;;4935597;29;20029;-86
2022/01/14 09:56:58;;;;;;;12.15;4.75;;;18.80;65.40;;;;;;4911419;29;20040;-86
2022/01/14 09:59:24;;;;;;;11.60;4.90;;;19.90;63.60;;;;;;4912285;29;20029;-87
2022/01/14 10:01:50;;;;;;;10.18;4.20;;;18.40;65.30;;;;;;4918989;29;20024;-85
2022/01/14 10:04:21;;;;;;;9.43;4.78;;;19.00;64.20;;;;;;4929592;29;20032;-86
2022/01/14 10:07:00;;;;;;;9.05;4.20;;;18.50;64.50;;;;;;4921060;29;20035;-86
2022/01/14 10:09:33;;;;;;;8.65;4.57;;;16.50;67.20;;;;;;4905574;29;20036;-86
2022/01/14 10:12:16;;;;;;;9.27;4.13;;;16.10;68.40;;;;;;4918843;29;20032;-87
2022/01/14 10:15:03;;;;;;;7.30;3.90;;;15.90;69.60;;;;;;4926382;29;20088;-85
2022/01/14 10:17:41;;;;;;;8.27;4.32;;;16.90;68.00;;;;;;4933303;29;20072;-86
2022/01/14 10:20:13;;;;;;;8.57;4.28;;;16.70;68.40;;;;;;4943089;29;20096;-84
2022/01/14 10:22:44;;;;;;;9.52;4.30;;;15.70;70.00;;;;;;4939851;29;20032;-85
2022/01/14 10:25:14;;;;;;;8.43;4.40;;;16.20;70.10;;;;;;4924372;29;20017;-85
2022/01/14 10:27:51;;;;;;;6.70;4.20;;;17.70;67.60;;;;;;4924399;29;20049;-85
2022/01/14 10:30:32;;;;;;;8.10;3.88;;;17.50;66.90;;;;;;4924378;29;20035;-85
2022/01/14 10:33:07;;;;;;;9.60;5.15;;;17.20;67.60;;;;;;4924333;29;20052;-85
2022/01/14 10:35:42;;;;;;;9.30;3.85;;;17.50;66.20;;;;;;4924243;29;20092;-85
2022/01/14 10:38:11;;;;;;;7.00;3.03;;;17.90;65.60;;;;;;4924122;29;20063;-85
2022/01/14 10:40:47;;;;;;;19.95;4.07;;;19.10;64.50;;;;;;4907578;29;20021;-86
2022/01/14 10:43:16;;;;;;;10.18;4.40;;;20.10;62.80;;;;;;4924008;29;20052;-86
2022/01/14 10:45:43;;;;;;;7.32;3.80;;;20.90;61.40;;;;;;4923828;29;20027;-87
2022/01/14 10:48:18;;;;;;;9.77;3.97;;;21.10;60.30;;;;;;4923480;29;20036;-86
2022/01/14 10:50:54;;;;;;;6.10;3.47;;;21.50;59.50;;;;;;4938982;29;20060;-84
2022/01/14 10:53:26;;;;;;;14.75;4.22;;;21.90;57.80;;;;;;4927231;29;20053;-86
2022/01/14 10:55:59;;;;;;;6.25;3.60;;;21.40;57.70;;;;;;4935864;29;20064;-84
2022/01/14 10:58:29;;;;;;;7.90;3.20;;;21.10;57.00;;;;;;4946921;23;20145;-84
2022/01/14 11:01:00;;;;;;;8.27;3.20;;;19.70;58.40;;;;;;4927662;29;20024;-84
2022/01/14 11:03:39;;;;;;;7.80;3.17;;;19.30;59.60;;;;;;4918433;29;20027;-85
2022/01/14 11:06:24;;;;;;;7.00;3.13;;;19.80;59.20;;;;;;4943987;29;20024;-84
2022/01/14 11:08:55;;;;;;;5.60;2.60;;;19.90;58.60;;;;;;4944168;29;20403;-83
2022/01/14 11:11:22;;;;;;;6.15;2.97;;;20.40;58.00;;;;;;4935301;29;20258;-84
2022/01/14 11:13:47;;;;;;;9.43;3.10;;;20.70;57.70;;;;;;4945002;29;20062;-86
2022/01/14 11:16:13;;;;;;;7.55;2.80;;;20.80;57.00;;;;;;4949282;29;20024;-84
2022/01/14 11:18:40;;;;;;;5.85;3.15;;;20.80;57.20;;;;;;4933923;29;20032;-84
2022/01/14 11:23:51;;;;;;;5.90;2.20;;;21.50;55.70;;;;;;4942383;29;20028;-84
2022/01/14 11:26:20;;;;;;;5.22;2.75;;;20.70;55.50;;;;;;4941555;29;20126;-84
2022/01/14 11:28:46;;;;;;;6.22;2.90;;;20.50;56.10;;;;;;4947632;29;20038;-85
2022/01/14 11:31:35;;;;;;;3.20;2.30;;;21.00;55.20;;;;;;4946670;29;20499;-82
2022/01/14 11:34:03;;;;;;;5.78;2.72;;;20.80;54.90;;;;;;4929980;29;20044;-83
2022/01/14 11:36:48;;;;;;;5.22;2.58;;;20.40;55.60;;;;;;4935555;29;20099;-83
2022/01/14 11:39:40;;;;;;;7.93;2.85;;;20.10;55.70;;;;;;4943578;29;20043;-82
2022/01/14 11:42:09;;;;;;;8.40;2.85;;;20.40;55.70;;;;;;4944594;29;20035;-85
2022/01/14 11:44:58;;;;;;;8.05;2.47;;;21.50;54.60;;;;;;4938838;29;20530;-84
2022/01/14 11:47:24;;;;;;;11.98;3.15;;;21.60;54.10;;;;;;4934918;29;20031;-83
2022/01/14 11:49:51;;;;;;;9.70;2.80;;;21.30;54.60;;;;;;4932316;29;20027;-82
2022/01/14 11:52:34;;;;;;;6.05;2.67;;;20.50;54.60;;;;;;4943587;29;20501;-84
2022/01/14 11:55:02;;;;;;;3.80;2.45;;;19.00;56.20;;;;;;4943855;29;20028;-84
2022/01/14 11:57:52;;;;;;;6.28;2.83;;;17.10;58.60;;;;;;4947430;29;20036;-84
2022/01/14 12:00:30;;;;;;;10.32;2.55;;;15.60;61.10;;;;;;4942689;29;20034;-83
2022/01/14 12:03:25;;;;;;;9.93;2.67;;;14.50;62.80;;;;;;4931786;29;20020;-83
2022/01/14 12:06:05;;;;;;;18.17;3.90;;;13.70;64.10;;;;;;4931098;29;20035;-84
2022/01/14 12:08:35;;;;;;;12.65;2.95;;;13.30;65.10;;;;;;4926591;29;20100;-81
2022/01/14 12:11:07;;;;;;;6.15;2.42;;;12.80;66.20;;;;;;4933620;29;20047;-84
2022/01/14 12:16:08;;;;;;;7.65;2.53;;;12.30;67.50;;;;;;4945037;29;20054;-84
2022/01/14 12:18:49;;;;;;;11.10;2.65;;;12.20;68.10;;;;;;4947228;29;20071;-84
2022/01/14 12:21:16;;;;;;;6.43;2.63;;;11.90;68.90;;;;;;4932214;29;20032;-84
2022/01/14 12:23:43;;;;;;;10.00;2.55;;;11.80;69.40;;;;;;4944884;29;20391;-82
2022/01/14 12:26:14;;;;;;;10.60;2.75;;;11.60;70.30;;;;;;4944990;29;20516;-84
2022/01/14 12:28:40;;;;;;;5.63;2.67;;;11.50;71.30;;;;;;4950924;29;20019;-83
2022/01/14 12:31:06;;;;;;;10.57;2.28;;;11.40;72.10;;;;;;4954384;29;20051;-83
2022/01/14 12:33:42;;;;;;;9.98;2.78;;;11.30;72.90;;;;;;4943504;29;20043;-81
2022/01/14 12:36:13;;;;;;;15.05;2.65;;;11.20;73.90;;;;;;4958146;29;20034;-83
2022/01/14 12:38:42;;;;;;;7.28;2.30;;;11.10;74.70;;;;;;4952255;29;20032;-83
2022/01/14 12:41:23;;;;;;;4.95;2.17;;;11.00;75.50;;;;;;4948804;29;20038;-84
2022/01/14 12:43:51;;;;;;;7.65;3.08;;;11.00;76.30;;;;;;4949068;29;20044;-85
2022/01/14 12:46:51;;;;;;;8.45;2.80;;;10.90;76.80;;;;;;4942618;29;20024;-83
2022/01/14 12:49:32;;;;;;;5.97;2.70;;;10.90;77.50;;;;;;4947560;29;20096;-85
2022/01/14 12:52:19;;;;;;;9.05;2.50;;;10.80;77.90;;;;;;4938452;29;20025;-83
2022/01/14 12:54:46;;;;;;;6.45;2.88;;;10.70;78.00;;;;;;4955464;29;20036;-85
2022/01/14 12:57:17;;;;;;;7.47;2.90;;;10.70;78.20;;;;;;4952414;29;20031;-84
2022/01/14 12:59:45;;;;;;;10.73;2.70;;;10.60;77.80;;;;;;4952401;29;20064;-85
2022/01/14 13:02:20;;;;;;;5.25;2.63;;;10.60;77.20;;;;;;4942007;29;20016;-85
2022/01/14 13:04:58;;;;;;;6.32;2.33;;;10.60;76.60;;;;;;4954551;29;20020;-85
2022/01/14 13:07:25;;;;;;;11.45;2.40;;;10.50;76.30;;;;;;4941823;29;20063;-83
2022/01/14 13:09:52;;;;;;;11.20;2.50;;;10.50;75.50;;;;;;4939940;29;20088;-84
2022/01/14 13:12:21;;;;;;;7.25;2.40;;;10.50;75.00;;;;;;4939669;29;20044;-86
2022/01/14 13:14:53;;;;;;;9.50;2.10;;;10.50;75.00;;;;;;4951687;29;20023;-85
2022/01/14 13:17:25;;;;;;;9.48;2.20;;;10.50;75.30;;;;;;4951738;29;20032;-84
2022/01/14 13:20:04;;;;;;;10.20;2.28;;;10.40;75.50;;;;;;4941921;29;20016;-84
2022/01/14 13:22:31;;;;;;;9.45;2.70;;;10.40;76.20;;;;;;4942729;29;20062;-83
2022/01/14 13:25:00;;;;;;;3.67;2.28;;;10.30;76.70;;;;;;4956976;29;20182;-85